Time;durP1;ratioP1;P1;durP2;ratioP2;P2;SDS_P1;SDS_P2;PMS_P1;PMS_P2;Temp;Humidity;BMP_temperature;BMP_pressure;BME280_temperature;BME280_humidity;BME280_pressure;Samples;Min_cycle;Max_cycle;Signal;HPM_P1;HPM_P2
2023/05/25 00:01:53;;;;;;;6.07;3.20;;;;;;;8.31;100.00;101177.56;5027392;28;20656;-69
2023/05/25 00:04:20;;;;;;;7.27;3.30;;;;;;;8.30;100.00;101171.38;5033392;28;20325;-69
2023/05/25 00:06:46;;;;;;;7.53;3.40;;;;;;;8.50;100.00;101173.88;5026830;28;20203;-69
2023/05/25 00:09:13;;;;;;;4.90;3.23;;;;;;;8.46;100.00;101172.88;5034496;28;20203;-69
2023/05/25 00:11:39;;;;;;;8.30;3.40;;;;;;;8.66;100.00;101169.13;5025591;28;20207;-69
2023/05/25 00:14:07;;;;;;;8.17;3.60;;;;;;;8.82;100.00;101165.28;5035287;28;20709;-70
2023/05/25 00:16:36;;;;;;;5.07;3.40;;;;;;;8.95;100.00;101161.28;5010694;28;20211;-69
2023/05/25 00:19:06;;;;;;;7.67;3.80;;;;;;;9.05;100.00;101161.63;5028313;28;20195;-69
2023/05/25 00:21:36;;;;;;;9.37;3.63;;;;;;;9.21;100.00;101163.03;5022817;28;20862;-68
2023/05/25 00:24:04;;;;;;;8.57;4.43;;;;;;;9.33;100.00;101159.84;5033540;28;20224;-68
2023/05/25 00:26:30;;;;;;;9.03;3.73;;;;;;;9.39;100.00;101157.38;5031320;28;20198;-69
2023/05/25 00:28:59;;;;;;;9.87;3.97;;;;;;;9.42;100.00;101154.84;5023688;28;20584;-69
2023/05/25 00:31:26;;;;;;;8.73;3.70;;;;;;;9.46;100.00;101158.47;5028780;28;20202;-69
2023/05/25 00:33:53;;;;;;;9.13;4.27;;;;;;;9.55;100.00;101162.28;5030726;28;20766;-70
2023/05/25 00:36:19;;;;;;;9.80;4.27;;;;;;;9.68;100.00;101153.88;5025896;28;20200;-69
2023/05/25 00:38:46;;;;;;;8.70;3.70;;;;;;;9.70;100.00;101160.09;5027589;28;20191;-69
2023/05/25 00:41:14;;;;;;;5.90;3.70;;;;;;;9.74;100.00;101156.69;5031778;28;20206;-68
2023/05/25 00:43:41;;;;;;;6.53;3.57;;;;;;;9.70;100.00;101151.28;5034543;28;20203;-70
2023/05/25 00:46:09;;;;;;;10.23;4.00;;;;;;;9.60;100.00;101151.81;5028137;28;20298;-68
2023/05/25 00:48:38;;;;;;;10.27;3.70;;;;;;;9.63;100.00;101147.56;5025321;28;20287;-69
2023/05/25 00:51:04;;;;;;;8.13;3.50;;;;;;;9.70;100.00;101149.53;5026478;28;20286;-69
2023/05/25 00:53:32;;;;;;;8.27;3.63;;;;;;;9.61;100.00;101149.25;5022262;28;20643;-69
2023/05/25 00:56:04;;;;;;;7.87;3.93;;;;;;;9.59;100.00;101148.28;5028141;28;20223;-69
2023/05/25 00:58:33;;;;;;;8.87;3.67;;;;;;;9.65;100.00;101150.25;5024880;28;20197;-69
2023/05/25 01:01:02;;;;;;;6.80;3.70;;;;;;;9.69;100.00;101154.78;5031187;28;20202;-69
2023/05/25 01:03:36;;;;;;;11.30;4.00;;;;;;;9.73;100.00;101146.06;5029785;28;20200;-69
2023/05/25 01:06:07;;;;;;;8.37;3.60;;;;;;;9.62;100.00;101145.75;5038975;28;20306;-69
2023/05/25 01:08:35;;;;;;;9.27;3.60;;;;;;;9.60;100.00;101149.19;5029688;28;20229;-69
2023/05/25 01:11:04;;;;;;;7.40;3.50;;;;;;;9.57;100.00;101146.44;5022174;28;20688;-68
2023/05/25 01:13:30;;;;;;;7.67;4.13;;;;;;;9.55;100.00;101140.22;5030708;28;20219;-69
2023/05/25 01:15:57;;;;;;;7.37;3.80;;;;;;;9.55;100.00;101145.50;5036698;28;20596;-68
2023/05/25 01:18:23;;;;;;;9.70;4.23;;;;;;;9.43;100.00;101144.31;5031372;28;20745;-69
2023/05/25 01:20:55;;;;;;;13.47;3.93;;;;;;;9.43;100.00;101146.94;5024798;28;20253;-69
2023/05/25 01:23:29;;;;;;;9.50;4.10;;;;;;;9.43;100.00;101143.41;5027939;28;20192;-69
2023/05/25 01:25:59;;;;;;;9.43;4.23;;;;;;;9.48;100.00;101152.38;5024751;28;20689;-69
2023/05/25 01:28:38;;;;;;;9.37;4.07;;;;;;;9.47;100.00;101154.97;5022739;28;20195;-69
2023/05/25 01:31:07;;;;;;;9.63;3.93;;;;;;;9.31;100.00;101153.63;5032127;28;20203;-69
2023/05/25 01:33:35;;;;;;;7.83;4.03;;;;;;;9.28;100.00;101164.09;5030808;28;20595;-68
2023/05/25 01:36:02;;;;;;;10.97;4.50;;;;;;;9.19;100.00;101159.41;5031483;28;20231;-69
2023/05/25 01:38:28;;;;;;;10.87;4.97;;;;;;;9.09;100.00;101157.31;5030239;28;20716;-69
2023/05/25 01:40:55;;;;;;;9.50;5.10;;;;;;;9.10;100.00;101159.13;5029689;28;20201;-69
2023/05/25 01:43:22;;;;;;;12.30;4.97;;;;;;;9.06;100.00;101160.78;5037893;28;20195;-70
2023/05/25 01:45:52;;;;;;;12.03;5.10;;;;;;;8.94;100.00;101164.78;5028172;28;20294;-69
2023/05/25 01:48:39;;;;;;;11.50;5.00;;;;;;;9.04;100.00;101165.13;5030407;28;20257;-68
2023/05/25 01:51:24;;;;;;;10.77;5.73;;;;;;;9.11;100.00;101158.28;5025009;28;20199;-70
2023/05/25 01:54:01;;;;;;;10.90;5.43;;;;;;;9.02;100.00;101160.63;5021597;28;20222;-69
2023/05/25 01:56:30;;;;;;;8.87;5.20;;;;;;;9.01;100.00;101166.75;5015998;28;20209;-69
2023/05/25 01:59:00;;;;;;;11.77;5.40;;;;;;;8.98;100.00;101164.91;5025866;28;20234;-69
2023/05/25 02:01:27;;;;;;;15.53;5.70;;;;;;;8.95;100.00;101159.53;5030909;28;20698;-70
2023/05/25 02:03:55;;;;;;;12.20;5.80;;;;;;;9.01;100.00;101159.72;5023525;28;20244;-67
2023/05/25 02:06:21;;;;;;;10.37;5.40;;;;;;;8.96;100.00;101166.63;5030750;28;20207;-68
2023/05/25 02:08:48;;;;;;;10.27;5.47;;;;;;;8.86;100.00;101164.53;5036489;28;20705;-69
2023/05/25 02:11:15;;;;;;;10.30;5.63;;;;;;;8.81;100.00;101167.88;5033131;28;20602;-69
2023/05/25 02:13:41;;;;;;;15.40;5.77;;;;;;;8.62;100.00;101169.88;5028612;28;20222;-68
2023/05/25 02:16:08;;;;;;;14.50;6.30;;;;;;;8.61;100.00;101169.84;5035417;28;20243;-69
2023/05/25 02:18:34;;;;;;;11.27;5.70;;;;;;;8.60;100.00;101165.41;5031534;28;20669;-70
2023/05/25 02:21:01;;;;;;;15.67;6.33;;;;;;;8.54;100.00;101168.75;5033362;28;20287;-69
2023/05/25 02:23:27;;;;;;;8.57;5.30;;;;;;;8.61;100.00;101161.91;5028880;28;20199;-69
2023/05/25 02:25:54;;;;;;;10.87;5.60;;;;;;;8.61;100.00;101167.19;5031204;28;20216;-68
2023/05/25 02:28:21;;;;;;;11.07;6.33;;;;;;;8.65;100.00;101164.72;5032332;28;20754;-69
2023/05/25 02:30:47;;;;;;;9.80;5.90;;;;;;;8.69;100.00;101156.03;5031403;28;20282;-69
2023/05/25 02:33:14;;;;;;;11.90;5.73;;;;;;;8.75;100.00;101158.88;5012952;28;20219;-69
2023/05/25 02:35:40;;;;;;;11.37;5.93;;;;;;;8.68;100.00;101162.16;5016777;28;20218;-69
2023/05/25 02:38:07;;;;;;;12.67;6.47;;;;;;;8.63;100.00;101163.75;5029396;28;20203;-69
2023/05/25 02:40:33;;;;;;;12.90;6.70;;;;;;;8.51;100.00;101151.91;5027192;28;20200;-70
2023/05/25 02:43:00;;;;;;;12.50;5.70;;;;;;;8.53;100.00;101152.84;5010558;28;20213;-69
2023/05/25 02:45:26;;;;;;;10.97;6.23;;;;;;;8.58;100.00;101149.50;5031147;28;20219;-69
2023/05/25 02:47:52;;;;;;;12.53;6.00;;;;;;;8.66;100.00;101152.41;5030359;28;20195;-69
2023/05/25 02:50:19;;;;;;;11.67;6.07;;;;;;;8.75;100.00;101145.66;5029115;28;20232;-68
2023/05/25 02:52:45;;;;;;;12.33;5.97;;;;;;;8.73;100.00;101143.81;5030999;28;20568;-69
2023/05/25 02:55:12;;;;;;;11.73;5.50;;;;;;;8.75;100.00;101148.31;5028228;28;20233;-69
2023/05/25 02:57:39;;;;;;;11.53;6.00;;;;;;;8.76;100.00;101151.84;5029540;28;20668;-69
2023/05/25 03:00:06;;;;;;;9.37;5.50;;;;;;;8.70;100.00;101149.91;5034223;28;20203;-69
2023/05/25 03:02:33;;;;;;;11.07;5.63;;;;;;;8.64;100.00;101141.78;5028660;28;20199;-69
2023/05/25 03:05:00;;;;;;;13.77;6.40;;;;;;;8.61;100.00;101146.97;5030404;28;20664;-71
2023/05/25 03:07:30;;;;;;;11.30;5.80;;;;;;;8.52;100.00;101153.69;5031144;28;20207;-69
2023/05/25 03:09:57;;;;;;;10.93;5.20;;;;;;;8.53;100.00;101145.81;5030504;28;20196;-69
2023/05/25 03:12:23;;;;;;;14.67;5.60;;;;;;;8.40;100.00;101152.41;5030873;28;20198;-69
2023/05/25 03:14:50;;;;;;;11.47;5.67;;;;;;;8.41;100.00;101146.31;5030964;28;20228;-69
2023/05/25 03:17:16;;;;;;;10.83;5.50;;;;;;;8.30;100.00;101162.56;5029621;28;20199;-70
2023/05/25 03:19:43;;;;;;;13.67;5.57;;;;;;;8.24;100.00;101171.16;5008261;28;20195;-69
2023/05/25 03:22:11;;;;;;;10.73;5.90;;;;;;;8.18;100.00;101171.84;5029203;28;20210;-69
2023/05/25 03:24:40;;;;;;;12.30;5.47;;;;;;;8.14;100.00;101164.69;5030004;28;20217;-69
2023/05/25 03:27:07;;;;;;;13.30;5.70;;;;;;;8.06;100.00;101167.88;5026786;28;20290;-70
2023/05/25 03:29:33;;;;;;;9.87;5.33;;;;;;;7.97;100.00;101170.16;5008469;28;20204;-69
2023/05/25 03:32:00;;;;;;;8.00;4.80;;;;;;;7.87;100.00;101179.50;5030749;28;20582;-69
2023/05/25 03:34:28;;;;;;;10.87;4.80;;;;;;;7.72;100.00;101171.03;5029145;28;20733;-69
2023/05/25 03:36:54;;;;;;;8.60;4.97;;;;;;;7.59;100.00;101181.94;5029270;28;20199;-69
2023/05/25 03:39:21;;;;;;;12.07;5.40;;;;;;;7.46;100.00;101176.19;5034342;28;20616;-69
2023/05/25 03:41:47;;;;;;;10.53;5.80;;;;;;;7.36;100.00;101179.31;5028532;28;20206;-69
2023/05/25 03:44:16;;;;;;;10.17;4.67;;;;;;;7.27;100.00;101172.81;5026446;28;20269;-70
2023/05/25 03:46:42;;;;;;;10.67;5.47;;;;;;;7.20;100.00;101174.28;5031967;28;20196;-69
2023/05/25 03:49:12;;;;;;;9.70;5.00;;;;;;;7.22;100.00;101175.28;5009420;28;20234;-69
2023/05/25 03:51:42;;;;;;;10.33;5.30;;;;;;;7.16;100.00;101178.53;5022388;28;20753;-69
2023/05/25 03:54:09;;;;;;;8.17;4.93;;;;;;;7.16;100.00;101177.63;5025898;28;20498;-69
2023/05/25 03:56:35;;;;;;;9.57;5.87;;;;;;;7.17;100.00;101176.78;5025535;28;20203;-70
2023/05/25 03:59:01;;;;;;;12.40;5.73;;;;;;;7.25;100.00;101185.91;5029510;28;20206;-69
2023/05/25 04:01:28;;;;;;;10.57;5.33;;;;;;;7.45;100.00;101181.41;5027447;28;20208;-70
2023/05/25 04:03:55;;;;;;;11.60;5.90;;;;;;;7.52;100.00;101183.44;5035692;28;20294;-68
2023/05/25 04:06:24;;;;;;;10.17;5.13;;;;;;;7.59;100.00;101190.72;5027830;28;21496;-69
2023/05/25 04:08:51;;;;;;;11.13;6.10;;;;;;;7.63;100.00;101191.78;5031179;28;20191;-69
2023/05/25 04:11:18;;;;;;;10.70;5.40;;;;;;;7.70;100.00;101197.34;5030979;28;20199;-68
2023/05/25 04:13:45;;;;;;;9.93;5.67;;;;;;;7.91;100.00;101204.25;5025595;28;20230;-69
2023/05/25 04:16:11;;;;;;;14.93;6.10;;;;;;;8.14;100.00;101195.44;5027761;28;20206;-71
2023/05/25 04:18:38;;;;;;;9.57;5.60;;;;;;;8.29;100.00;101203.88;5028412;28;20206;-69
2023/05/25 04:21:05;;;;;;;12.07;5.47;;;;;;;8.35;100.00;101204.13;5031981;28;20657;-71
2023/05/25 04:23:32;;;;;;;12.47;5.13;;;;;;;8.56;100.00;101205.75;5030775;28;20206;-71
2023/05/25 04:25:59;;;;;;;8.77;5.10;;;;;;;8.69;100.00;101210.59;5029252;28;20213;-69
2023/05/25 04:28:27;;;;;;;10.10;5.03;;;;;;;8.73;100.00;101204.56;5032162;28;20215;-69
2023/05/25 04:30:55;;;;;;;10.43;5.03;;;;;;;8.83;100.00;101209.34;5027329;28;20191;-71
2023/05/25 04:33:23;;;;;;;10.17;5.10;;;;;;;8.98;100.00;101208.94;5022051;28;20593;-69
2023/05/25 04:35:49;;;;;;;8.70;5.17;;;;;;;9.12;100.00;101212.91;5022310;28;20298;-68
2023/05/25 04:38:16;;;;;;;9.57;5.33;;;;;;;9.23;100.00;101219.47;5027582;28;20237;-69
2023/05/25 04:40:45;;;;;;;9.10;5.07;;;;;;;9.35;100.00;101214.56;5020193;28;20207;-70
2023/05/25 04:43:12;;;;;;;9.47;4.70;;;;;;;9.40;100.00;101212.94;5024960;28;20287;-69
2023/05/25 04:45:38;;;;;;;14.03;5.00;;;;;;;9.56;100.00;101224.88;5028166;28;20253;-69
2023/05/25 04:48:06;;;;;;;15.73;5.67;;;;;;;9.72;100.00;101221.88;5023151;28;20235;-69
2023/05/25 04:50:32;;;;;;;12.17;5.13;;;;;;;9.83;100.00;101229.22;5021452;28;20259;-69
2023/05/25 04:52:59;;;;;;;8.27;4.53;;;;;;;9.90;100.00;101226.81;5025053;28;20329;-69
2023/05/25 04:55:25;;;;;;;6.40;4.63;;;;;;;10.04;100.00;101230.78;5049235;23;20256;-77
2023/05/25 04:57:53;;;;;;;9.17;4.67;;;;;;;10.10;100.00;101230.03;5020844;28;20199;-77
2023/05/25 05:00:20;;;;;;;9.37;4.63;;;;;;;10.17;100.00;101239.06;5029289;28;20286;-76
2023/05/25 05:02:47;;;;;;;9.23;5.03;;;;;;;10.40;98.41;101234.41;5028025;28;20207;-76
2023/05/25 05:05:14;;;;;;;8.67;4.53;;;;;;;10.51;97.81;101239.19;5032664;28;20770;-76
2023/05/25 05:07:41;;;;;;;9.40;4.40;;;;;;;10.67;95.81;101244.03;5024457;28;20226;-74
2023/05/25 05:10:07;;;;;;;11.17;4.37;;;;;;;10.84;94.86;101256.84;5025295;28;20249;-79
2023/05/25 05:12:34;;;;;;;9.70;3.97;;;;;;;10.97;93.98;101241.28;5030732;28;20200;-76
2023/05/25 05:15:00;;;;;;;8.23;3.97;;;;;;;11.09;93.80;101261.88;5027434;28;20227;-73
2023/05/25 05:17:29;;;;;;;9.10;4.43;;;;;;;11.17;92.68;101259.41;5027153;28;20197;-73
2023/05/25 05:19:56;;;;;;;7.73;4.23;;;;;;;11.25;92.78;101264.09;5022903;28;20598;-68
2023/05/25 05:22:22;;;;;;;11.90;4.00;;;;;;;11.34;91.84;101263.41;5020944;28;20204;-70
2023/05/25 05:24:49;;;;;;;9.37;3.93;;;;;;;11.45;90.93;101261.91;5019899;28;20736;-69
2023/05/25 05:27:16;;;;;;;12.70;4.37;;;;;;;11.60;89.51;101270.19;5023344;28;20591;-68
2023/05/25 05:29:42;;;;;;;8.20;4.00;;;;;;;11.69;88.99;101272.19;5023053;28;20278;-73
2023/05/25 05:32:09;;;;;;;9.90;4.23;;;;;;;11.82;88.18;101271.63;5024520;28;20197;-70
2023/05/25 05:34:36;;;;;;;7.53;4.27;;;;;;;11.92;87.41;101284.25;5030834;28;20238;-68
2023/05/25 05:37:02;;;;;;;7.97;4.00;;;;;;;11.98;86.97;101274.63;5005361;28;20217;-72
2023/05/25 05:39:29;;;;;;;7.03;4.03;;;;;;;12.11;86.38;101279.34;5010239;28;20599;-70
2023/05/25 05:41:56;;;;;;;10.03;4.27;;;;;;;12.30;85.68;101280.63;5027438;28;20278;-71
2023/05/25 05:44:23;;;;;;;10.43;4.40;;;;;;;12.38;85.07;101285.22;5022215;28;20202;-71
2023/05/25 05:46:58;;;;;;;10.63;4.30;;;;;;;12.41;84.62;101276.44;5021731;28;20200;-68
2023/05/25 05:49:27;;;;;;;8.73;4.80;;;;;;;12.68;84.28;101284.03;5023094;28;20214;-69
2023/05/25 05:51:53;;;;;;;5.63;3.90;;;;;;;13.09;80.73;101277.72;5026783;28;20197;-70
2023/05/25 05:54:19;;;;;;;9.17;4.00;;;;;;;13.67;77.71;101283.13;5020720;28;20314;-74
2023/05/25 05:56:46;;;;;;;9.53;3.80;;;;;;;13.69;77.38;101282.28;5018406;28;20208;-67
2023/05/25 05:59:12;;;;;;;7.60;3.97;;;;;;;13.65;77.22;101275.13;5016664;28;20207;-69
2023/05/25 06:01:39;;;;;;;9.73;4.00;;;;;;;13.56;78.43;101277.63;5025869;28;20212;-70
2023/05/25 06:04:05;;;;;;;12.23;4.03;;;;;;;13.53;78.21;101277.59;5019419;28;20196;-71
2023/05/25 06:06:33;;;;;;;8.23;3.97;;;;;;;13.41;77.61;101278.28;5031400;28;20205;-69
2023/05/25 06:09:02;;;;;;;8.50;3.70;;;;;;;13.40;77.28;101279.16;5021998;28;20231;-70
2023/05/25 06:11:28;;;;;;;7.03;3.47;;;;;;;13.38;77.36;101278.25;5023443;28;20258;-71
2023/05/25 06:13:55;;;;;;;12.30;3.93;;;;;;;13.42;75.86;101293.38;5022092;28;20570;-68
2023/05/25 06:16:23;;;;;;;8.40;3.37;;;;;;;13.53;75.67;101280.25;5021123;28;20224;-68
2023/05/25 06:18:50;;;;;;;8.67;3.70;;;;;;;13.64;75.88;101285.75;5023955;28;20197;-72
2023/05/25 06:21:16;;;;;;;8.17;3.60;;;;;;;13.72;74.71;101297.41;5014383;28;20243;-69
2023/05/25 06:23:42;;;;;;;9.73;4.03;;;;;;;13.93;75.25;101303.03;5024186;28;20579;-69
2023/05/25 06:26:09;;;;;;;12.13;4.07;;;;;;;13.81;75.23;101294.88;5026109;28;20302;-70
2023/05/25 06:28:36;;;;;;;9.73;3.97;;;;;;;13.90;75.17;101295.00;5027358;28;20197;-69
2023/05/25 06:31:02;;;;;;;6.07;3.60;;;;;;;13.91;74.75;101293.22;5025133;28;20680;-72
2023/05/25 06:33:28;;;;;;;10.57;4.13;;;;;;;13.94;75.17;101295.94;5025803;28;20194;-70
2023/05/25 06:35:59;;;;;;;8.30;3.90;;;;;;;13.95;75.17;101308.38;5021900;28;20227;-70
2023/05/25 06:38:26;;;;;;;6.60;3.40;;;;;;;14.03;74.65;101299.66;5027942;28;21654;-71
2023/05/25 06:40:53;;;;;;;7.43;3.60;;;;;;;14.07;74.29;101304.16;5022442;28;20572;-71
2023/05/25 06:43:20;;;;;;;7.23;4.10;;;;;;;14.15;74.89;101309.56;5008372;28;20210;-68
2023/05/25 06:45:46;;;;;;;7.33;3.70;;;;;;;14.20;74.62;101304.31;5029389;28;20221;-69
2023/05/25 06:48:13;;;;;;;13.20;4.23;;;;;;;14.28;74.00;101311.50;5027477;28;20206;-69
2023/05/25 06:50:41;;;;;;;8.93;4.00;;;;;;;14.39;73.94;101307.22;5023354;28;20226;-67
2023/05/25 06:53:09;;;;;;;7.73;3.80;;;;;;;14.41;73.48;101308.16;5023061;28;20218;-70
2023/05/25 06:55:36;;;;;;;7.60;3.90;;;;;;;14.56;72.36;101298.56;5019697;28;20219;-69
2023/05/25 06:58:02;;;;;;;6.57;3.77;;;;;;;14.79;71.87;101306.81;5017845;28;20230;-69
2023/05/25 07:00:28;;;;;;;16.07;4.00;;;;;;;15.27;70.67;101302.00;5025925;28;20203;-69
2023/05/25 07:02:55;;;;;;;7.43;4.27;;;;;;;15.62;68.73;101307.66;5023814;28;20253;-69
2023/05/25 07:05:21;;;;;;;8.80;4.33;;;;;;;16.35;65.15;101311.63;5028535;28;20223;-72
2023/05/25 07:07:48;;;;;;;10.27;3.83;;;;;;;17.28;60.65;101304.81;5024869;28;20250;-71
2023/05/25 07:10:14;;;;;;;9.03;4.03;;;;;;;18.84;53.58;101310.72;5027541;28;20212;-71
2023/05/25 07:12:40;;;;;;;7.33;3.67;;;;;;;20.46;47.75;101299.44;5029331;28;20198;-71
2023/05/25 07:15:08;;;;;;;7.30;3.40;;;;;;;21.25;42.45;101308.25;5031542;28;20230;-70
2023/05/25 07:17:35;;;;;;;8.83;3.87;;;;;;;21.03;43.55;101309.44;5032997;28;20551;-72
2023/05/25 07:20:03;;;;;;;8.67;4.33;;;;;;;22.25;40.49;101293.88;5033167;28;20231;-71
2023/05/25 07:22:30;;;;;;;5.77;3.47;;;;;;;22.76;39.38;101303.56;5026747;28;20202;-71
2023/05/25 07:24:56;;;;;;;7.63;3.90;;;;;;;22.38;39.35;101307.06;5026680;28;20630;-71
2023/05/25 07:27:24;;;;;;;9.17;3.90;;;;;;;22.37;39.79;101299.00;5028112;28;20287;-74
2023/05/25 07:29:50;;;;;;;7.07;3.53;;;;;;;22.95;37.97;101304.09;5028402;28;20425;-70
2023/05/25 07:32:17;;;;;;;8.73;4.10;;;;;;;22.28;39.44;101316.28;5028044;28;20200;-71
2023/05/25 07:34:43;;;;;;;7.63;4.03;;;;;;;21.85;40.52;101308.97;5033679;28;20674;-69
2023/05/25 07:37:09;;;;;;;8.97;4.07;;;;;;;22.32;39.72;101309.00;5029061;28;20572;-70
2023/05/25 07:39:36;;;;;;;8.90;4.10;;;;;;;22.25;40.30;101297.47;5023733;28;20204;-67
2023/05/25 07:42:02;;;;;;;7.80;3.73;;;;;;;21.70;40.25;101303.00;5031434;28;20580;-70
2023/05/25 07:44:29;;;;;;;6.77;3.37;;;;;;;22.37;38.53;101296.31;5021975;28;20218;-71
2023/05/25 07:46:55;;;;;;;8.40;4.00;;;;;;;22.40;38.55;101307.03;5023942;28;20195;-70
2023/05/25 07:49:22;;;;;;;7.87;4.00;;;;;;;22.89;38.26;101296.13;5031535;28;20207;-73
2023/05/25 07:51:50;;;;;;;8.70;3.80;;;;;;;22.56;39.58;101295.03;5020051;28;20211;-70
2023/05/25 07:54:18;;;;;;;9.17;3.80;;;;;;;22.77;38.53;101301.75;5018862;28;20218;-72
2023/05/25 07:56:44;;;;;;;7.10;3.47;;;;;;;22.16;37.55;101295.84;5030632;28;20196;-67
2023/05/25 07:59:11;;;;;;;9.07;3.27;;;;;;;21.68;37.20;101304.81;5034601;28;20210;-69
2023/05/25 08:01:38;;;;;;;10.17;3.30;;;;;;;22.04;36.54;101303.28;5030794;28;20226;-74
2023/05/25 08:04:04;;;;;;;6.07;3.07;;;;;;;21.50;36.63;101300.63;5022894;28;20688;-71
2023/05/25 08:06:33;;;;;;;5.90;3.03;;;;;;;21.22;36.89;101287.59;5015544;28;20251;-73
2023/05/25 08:09:02;;;;;;;5.90;2.97;;;;;;;20.56;36.11;101287.66;5003448;28;20255;-74
2023/05/25 08:11:30;;;;;;;7.67;2.93;;;;;;;20.05;37.49;101297.22;5012626;28;20199;-72
2023/05/25 08:13:56;;;;;;;5.40;2.80;;;;;;;19.92;38.07;101301.81;5013533;28;20200;-73
2023/05/25 08:16:22;;;;;;;7.35;3.25;;;;;;;19.56;39.22;101307.53;5014932;28;20459;-73
2023/05/25 08:18:49;;;;;;;8.10;3.20;;;;;;;18.83;40.77;101313.44;5018327;28;20202;-74
2023/05/25 08:21:15;;;;;;;5.43;2.87;;;;;;;19.14;40.46;101290.81;5009133;28;20665;-72
2023/05/25 08:23:42;;;;;;;8.23;3.37;;;;;;;19.38;41.00;101287.97;5016344;28;20206;-73
2023/05/25 08:26:10;;;;;;;6.97;3.27;;;;;;;18.97;41.38;101285.59;5010034;28;20207;-71
2023/05/25 08:28:56;;;;;;;7.40;2.97;;;;;;;19.22;41.30;101280.94;5013246;28;20199;-72
2023/05/25 08:31:22;;;;;;;7.43;3.50;;;;;;;18.99;40.91;101289.16;5009196;28;20196;-70
2023/05/25 08:33:49;;;;;;;6.57;3.23;;;;;;;19.03;41.25;101285.53;5015426;28;20203;-69
2023/05/25 08:36:16;;;;;;;5.90;3.33;;;;;;;19.22;42.02;101283.63;5012417;28;20226;-71
2023/05/25 08:38:43;;;;;;;5.67;3.40;;;;;;;18.99;41.42;101288.25;5015306;28;20288;-72
2023/05/25 08:41:11;;;;;;;7.20;2.87;;;;;;;18.62;41.32;101299.22;5017813;28;20294;-72
2023/05/25 08:43:38;;;;;;;5.17;3.10;;;;;;;18.32;41.22;101299.28;5017917;28;20200;-73
2023/05/25 08:46:06;;;;;;;8.57;2.93;;;;;;;18.15;42.44;101302.94;5018711;28;20215;-72
2023/05/25 08:48:35;;;;;;;3.87;2.50;;;;;;;18.42;42.98;101295.72;5016328;28;20195;-71
2023/05/25 08:51:09;;;;;;;4.50;2.97;;;;;;;18.62;43.19;101299.22;5016697;28;20226;-72
2023/05/25 08:53:39;;;;;;;9.90;3.87;;;;;;;18.45;48.13;101309.09;5019393;28;20196;-73
2023/05/25 08:56:25;;;;;;;6.97;3.90;;;;;;;18.29;48.99;101299.31;5027591;28;20234;-73
2023/05/25 08:59:10;;;;;;;6.50;3.97;;;;;;;18.26;50.03;101302.00;5027187;28;20192;-72
2023/05/25 09:01:43;;;;;;;10.03;4.13;;;;;;;18.57;49.75;101295.63;5032120;28;20202;-70
2023/05/25 09:04:12;;;;;;;7.57;3.90;;;;;;;18.58;49.25;101296.50;5025238;28;20228;-71
2023/05/25 09:06:39;;;;;;;9.17;3.57;;;;;;;18.51;48.81;101294.75;5021411;28;20196;-69
2023/05/25 09:09:08;;;;;;;10.63;3.90;;;;;;;18.39;48.02;101303.72;5023442;28;20211;-70
2023/05/25 09:11:35;;;;;;;6.73;3.30;;;;;;;18.66;47.12;101303.66;5030219;28;20208;-71
2023/05/25 09:14:07;;;;;;;8.00;3.70;;;;;;;18.68;47.08;101288.44;5032811;28;20212;-71
2023/05/25 09:16:36;;;;;;;7.57;3.37;;;;;;;18.81;45.63;101286.56;5023971;28;20675;-71
2023/05/25 09:19:03;;;;;;;9.50;3.90;;;;;;;18.81;46.70;101296.41;5017705;28;20824;-71
2023/05/25 09:21:30;;;;;;;7.47;3.60;;;;;;;18.79;47.22;101289.25;5027234;28;20198;-71
2023/05/25 09:23:58;;;;;;;9.37;3.67;;;;;;;19.00;47.52;101298.97;5028406;28;20195;-71
2023/05/25 09:26:25;;;;;;;9.33;4.20;;;;;;;18.72;47.28;101292.88;5028904;28;20294;-72
2023/05/25 09:28:52;;;;;;;7.03;3.67;;;;;;;18.86;48.84;101319.66;5032827;28;20197;-71
2023/05/25 09:31:21;;;;;;;6.90;3.60;;;;;;;18.87;45.77;101304.44;5038840;28;20617;-71
2023/05/25 09:33:48;;;;;;;6.53;3.53;;;;;;;19.01;46.48;101299.88;5030144;28;20199;-72
2023/05/25 09:36:15;;;;;;;5.80;3.23;;;;;;;18.93;45.75;101299.03;5029970;28;20227;-71
2023/05/25 09:38:42;;;;;;;6.00;3.23;;;;;;;19.07;45.54;101311.47;5030798;28;20196;-71
2023/05/25 09:41:09;;;;;;;6.97;3.70;;;;;;;19.02;45.19;101301.66;5031549;28;20203;-71
2023/05/25 09:43:36;;;;;;;4.83;3.07;;;;;;;19.06;45.69;101314.16;5026178;28;20282;-72
2023/05/25 09:46:12;;;;;;;7.63;3.63;;;;;;;19.08;45.55;101307.88;5028253;28;20211;-73
2023/05/25 09:48:40;;;;;;;6.77;3.73;;;;;;;19.28;44.16;101318.50;5024638;28;20203;-71
2023/05/25 09:51:07;;;;;;;8.53;3.67;;;;;;;19.29;46.17;101298.78;5030220;28;20214;-72
2023/05/25 09:53:33;;;;;;;6.00;3.53;;;;;;;19.23;44.96;101308.69;5026133;28;20670;-71
2023/05/25 09:56:01;;;;;;;7.83;3.47;;;;;;;19.26;45.00;101296.13;5035768;28;20318;-72
2023/05/25 09:58:29;;;;;;;7.47;3.70;;;;;;;19.38;45.10;101301.38;5021324;28;20454;-70
2023/05/25 10:00:56;;;;;;;9.43;3.40;;;;;;;19.57;46.12;101306.63;5030105;28;20195;-70
2023/05/25 10:03:22;;;;;;;6.83;3.47;;;;;;;19.87;43.69;101306.34;5024449;28;20203;-73
2023/05/25 10:05:50;;;;;;;8.03;4.00;;;;;;;19.82;43.84;101296.56;5029322;28;20555;-71
2023/05/25 10:08:20;;;;;;;8.07;3.90;;;;;;;19.91;44.32;101302.72;5030165;28;20574;-69
2023/05/25 10:10:48;;;;;;;7.23;3.50;;;;;;;19.78;43.63;101309.13;5032572;28;20207;-70
2023/05/25 10:13:21;;;;;;;8.67;3.87;;;;;;;19.40;44.33;101304.06;5008000;28;20227;-72
2023/05/25 10:15:52;;;;;;;6.73;3.80;;;;;;;19.58;43.84;101301.25;5022069;28;20767;-71
2023/05/25 10:18:24;;;;;;;7.33;3.37;;;;;;;19.64;43.65;101314.66;5024302;28;20199;-70
2023/05/25 10:20:55;;;;;;;9.13;3.93;;;;;;;19.70;44.51;101311.00;5033502;28;20228;-71
2023/05/25 10:23:23;;;;;;;6.03;3.47;;;;;;;19.38;46.00;101305.88;5024791;28;20195;-73
2023/05/25 10:25:55;;;;;;;9.03;3.67;;;;;;;19.49;46.31;101298.59;5038727;28;20752;-73
2023/05/25 10:28:29;;;;;;;6.97;4.07;;;;;;;19.58;45.88;101303.94;5029121;28;20195;-72
2023/05/25 10:30:57;;;;;;;9.43;3.80;;;;;;;19.71;47.33;101293.97;5011184;28;20203;-70
2023/05/25 10:33:23;;;;;;;6.87;3.70;;;;;;;19.76;45.36;101294.81;5026536;28;20199;-70
2023/05/25 10:35:52;;;;;;;15.57;3.70;;;;;;;19.93;45.38;101300.00;5030113;28;20662;-71
2023/05/25 10:38:25;;;;;;;6.10;3.17;;;;;;;20.18;43.41;101293.47;5029678;28;20680;-71
2023/05/25 10:40:54;;;;;;;7.00;3.40;;;;;;;20.34;42.55;101302.25;5030885;28;20690;-73
2023/05/25 10:43:22;;;;;;;7.00;3.30;;;;;;;20.31;43.60;101296.91;5029126;28;20207;-71
2023/05/25 10:45:48;;;;;;;6.47;3.17;;;;;;;20.14;43.64;101294.41;5015899;28;20650;-73
2023/05/25 10:48:15;;;;;;;6.57;3.45;;;;;;;20.02;44.26;101295.44;5021653;28;20231;-72
2023/05/25 10:50:41;;;;;;;6.70;3.43;;;;;;;20.08;44.03;101296.28;5017765;28;20207;-73
2023/05/25 10:53:12;;;;;;;6.87;3.83;;;;;;;20.19;44.56;101289.88;5017968;28;20196;-72
2023/05/25 10:55:51;;;;;;;6.82;3.53;;;;;;;20.15;45.61;101289.94;5052632;23;20313;-71
2023/05/25 10:58:20;;;;;;;5.13;3.23;;;;;;;20.12;44.73;101293.53;5033615;28;20203;-71
2023/05/25 11:01:11;;;;;;;5.43;3.15;;;;;;;20.19;41.78;101280.91;5052235;28;20282;-69
2023/05/25 11:03:43;;;;;;;5.10;3.08;;;;;;;20.44;42.58;101290.50;5033537;28;20298;-67
2023/05/25 11:06:12;;;;;;;6.00;3.60;;;;;;;20.52;41.40;101282.34;5049566;28;20241;-68
2023/05/25 11:08:58;;;;;;;5.15;3.50;;;;;;;20.75;42.11;101274.81;5057499;28;20203;-67
2023/05/25 11:11:42;;;;;;;7.15;3.80;;;;;;;20.87;41.15;101281.84;5052378;28;20201;-67
2023/05/25 11:14:25;;;;;;;5.07;3.58;;;;;;;21.03;41.91;101272.59;5055955;28;20199;-67
2023/05/25 11:17:10;;;;;;;6.15;3.72;;;;;;;21.46;41.22;101270.13;5054631;28;20222;-70
2023/05/25 11:19:50;;;;;;;7.95;3.60;;;;;;;21.57;40.23;101265.44;5056630;28;20727;-67
2023/05/25 11:22:22;;;;;;;5.57;3.80;;;;;;;21.37;41.15;101259.53;5067949;28;20770;-67
2023/05/25 11:24:52;;;;;;;5.90;3.47;;;;;;;21.20;42.08;101266.94;5060937;28;20659;-68
2023/05/25 11:27:31;;;;;;;8.35;4.32;;;;;;;20.91;42.23;101265.63;5063065;28;20194;-68